Conejos, Valles Caldera, New Mexico Weather observations

Data are for 10 minute period ending at time listed.
 Day   Time   Solar   Ave.   Ave.  Ave.  Vector  Max.   Baro.   Total    
  of    of     Rad.   Air    Rel.  Wind   Wind   Wind  Press.  Precip.   
Year   Day            Temp.  Hum.  Speed  Dir.   Gust                    
2014   (MST)  Kw/m2    F      %     mph   deg.    mph    mb.     in.     
-------------------------------------------------------------------------
 209   14:30   0.18   70.1    49    4.4   142     8.4   99999.0    0.00 
 209   14:40   0.22   69.9    49    5.5   170    13.1   99999.0    0.00 
 209   14:50   0.16   69.9    51    4.5   153    10.2   99999.0    0.00 
 209   15:00   0.22   69.5    50    5.3   160    11.7   99999.0    0.00 
 209   15:10   0.28   69.7    51    4.9   155    10.2   99999.0    0.00 
 209   15:20   0.46   70.1    51    6.1   158    12.5   99999.0    0.00 
 209   15:30   0.66   70.8    50    4.1   159    10.8   99999.0    0.00 
 209   15:40   0.21   70.6    49    5.2   158     9.9   99999.0    0.00 
 209   15:50   0.35   69.6    51    4.5   136    10.8   99999.0    0.00 
 209   16:00   0.23   68.6    53    4.3   142    10.8   99999.0    0.00 
 209   16:10   0.09   68.3    54    3.5   140     8.4   99999.0    0.00 
 209   16:20   0.09   67.6    55    3.2   149     7.8   99999.0    0.00 
 209   16:30   0.08   67.6    56    2.6   142     5.4   99999.0    0.00 
 209   16:40   0.07   67.4    55    2.8   151     6.6   99999.0    0.00 
 209   16:50   0.10   67.3    54    2.9   141     6.0   99999.0    0.00 
 209   17:00   0.11   67.7    54    3.9   142     8.4   99999.0    0.00 
 209   17:10   0.09   67.6    53    3.7   156     7.8   99999.0    0.00 
 209   17:20   0.07   67.4    53    2.8   147     6.6   99999.0    0.00 
 209   17:30   0.07   67.6    53    2.3   137     8.4   99999.0    0.00 
 209   17:40   0.04   67.7    50    2.5   180     9.0   99999.0    0.00 
 209   17:50   0.05   67.2    53    3.0   137     5.4   99999.0    0.00 
 209   18:00   0.05   66.8    54    3.0   143     6.6   99999.0    0.00 
 209   18:10   0.05   66.6    54    2.5   144     4.8   99999.0    0.00 
 209   18:20   0.05   66.3    55    2.8   147     7.8   99999.0    0.00 
 209   18:30   0.04   65.9    55    1.7   133     4.8   99999.0    0.00 
 209   18:40   0.03   65.6    56    1.6   139     4.2   99999.0    0.00 
 209   18:50   0.02   65.1    57    0.8   123     3.6   99999.0    0.00 
 209   19:00   0.01   64.7    59    0.0   104     1.2   99999.0    0.00 
 209   19:10   0.00   63.6    62    0.6   125     1.2   99999.0    0.00 
 209   19:20   0.00   62.6    64    2.4   147     6.0   99999.0    0.00 
 209   19:30   0.00   62.2    67    2.4   141     4.8   99999.0    0.00 
 209   19:40   0.00   61.3    68    2.9   142     7.8   99999.0    0.00 
 209   19:50   0.00   60.8    67    2.9   152     6.0   99999.0    0.00 
 209   20:00   0.00   60.7    65    3.4   162     4.8   99999.0    0.00 
 209   20:10   0.00   60.7    64    2.4   167     5.4   99999.0    0.00 
 209   20:20   0.00   60.6    65    2.4   167     4.8   99999.0    0.00 
 209   20:30   0.00   60.6    64    2.9   159     4.8   99999.0    0.00 
 209   20:40   0.00   60.7    64    2.9   133     7.8   99999.0    0.00 
 209   20:50   0.00   60.6    66    2.7   135     4.8   99999.0    0.00 
 209   21:00   0.00   60.4    67    2.4   139     4.2   99999.0    0.00 
 209   21:10   0.00   59.9    70    2.4   141     6.0   99999.0    0.00 
 209   21:20   0.00   59.5    72    2.5   139     5.4   99999.0    0.00 
 209   21:30   0.00   59.2    73    2.1   144     4.2   99999.0    0.00 
 209   21:40   0.00   58.9    74    2.3   147     4.2   99999.0    0.00 
 209   21:50   0.00   58.8    74    2.7   148     4.8   99999.0    0.00 
 209   22:00   0.00   58.9    74    2.3   145     4.8   99999.0    0.00 
 209   22:10   0.00   58.8    74    3.0   154     5.4   99999.0    0.00 
 209   22:20   0.00   59.0    74    2.9   156     6.0   99999.0    0.00 
 209   22:30   0.00   59.1    74    1.8   156     3.0   99999.0    0.00 
 209   22:40   0.00   59.2    74    2.0   150     3.6   99999.0    0.00 
 209   22:50   0.00   59.1    74    1.7    98     4.2   99999.0    0.00 
 209   23:00   0.00   59.1    74    1.6   149     3.0   99999.0    0.00 
 209   23:10   0.00   58.8    75    0.9   150     1.8   99999.0    0.00 
 209   23:20   0.00   58.7    76    1.2   322     5.4   99999.0    0.00 
 209   23:30   0.00   58.1    80    1.5   335     4.8   99999.0    0.01 
 209   23:40   0.00   56.7    89    0.6    67     2.4   99999.0    0.10 
 209   23:50   0.00   55.4    94    1.6   310     3.6   99999.0    0.01 
 210    0:00   0.00   55.1    94    1.4   191     3.0   99999.0    0.00 
 210    0:10   0.00   55.1    94    2.0    24     4.8   99999.0    0.00 
 210    0:20   0.00   55.2    94    1.4   140     4.2   99999.0    0.00 
 210    0:30   0.00   55.2    94    1.7   178     3.0   99999.0    0.01 
 210    0:40   0.00   55.1    94    1.4    79     4.2   99999.0    0.00 
 210    0:50   0.00   55.3    93    1.1   318     4.8   99999.0    0.00 
 210    1:00   0.00   55.3    93    0.6   256     3.0   99999.0    0.00 
 210    1:10   0.00   55.4    93    0.6   281     1.8   99999.0    0.00 
 210    1:20   0.00   55.5    92    0.6   298     3.0   99999.0    0.00 
 210    1:30   0.00   55.5    92    1.4   144     3.0   99999.0    0.00 
 210    1:40   0.00   55.4    92    0.3   124     2.1   99999.0    0.00 
 210    1:50   0.00   55.2    92    0.3   182     1.8   99999.0    0.00 
 210    2:00   0.00   55.1    91    0.0   150     1.2   99999.0    0.00 
 210    2:10   0.00   54.7    93    0.1   152     1.2   99999.0    0.00 
 210    2:20   0.00   54.4    95    0.5   162     1.8   99999.0    0.00 
 210    2:30   0.00   54.3    96    0.9   156     1.8   99999.0    0.00 
 210    2:40   0.00   54.3    96    0.1   170     1.2   99999.0    0.00 
 210    2:50   0.00   54.3    97    0.0   106     1.2   99999.0    0.00 
 210    3:00   0.00   54.2    97    0.0     0     0.0   99999.0    0.00 
 210    3:10   0.00   53.9    96    0.1   169     1.2   99999.0    0.00 
 210    3:20   0.00   53.7    96    0.7   349     2.1   99999.0    0.00 
 210    3:30   0.00   53.6    97    0.1   310     1.8   99999.0    0.00 
 210    3:40   0.00   53.8    96    0.0     0     0.0   99999.0    0.00 
 210    3:50   0.00   53.9    96    0.0     0     0.0   99999.0    0.00 
 210    4:00   0.00   53.9    96    0.0     0     0.0   99999.0    0.00 
 210    4:10   0.00   54.0    95    0.0     0     0.0   99999.0    0.00 
 210    4:20   0.00   54.3    94    0.0     0     0.0   99999.0    0.00 
 210    4:30   0.00   54.0    95    0.0     0     0.0   99999.0    0.00 
 210    4:40   0.00   54.0    93    0.0     0     0.0   99999.0    0.00 
 210    4:50   0.00   53.5    93    0.0     0     0.0   99999.0    0.00 
 210    5:00   0.00   52.8    95    0.1   209     1.2   99999.0    0.00 
 210    5:10   0.00   52.9    95    0.0     0     0.0   99999.0    0.00 
 210    5:20   0.00   53.1    95    0.0     0     0.0   99999.0    0.00 
 210    5:30   0.00   53.0    95    0.0     0     0.0   99999.0    0.00 
 210    5:40   0.01   52.8    96    0.0     0     0.0   99999.0    0.00 
 210    5:50   0.02   53.0    96    0.0     0     0.0   99999.0    0.00 
 210    6:00   0.02   53.2    96    0.0     0     0.0   99999.0    0.00 
 210    6:10   0.02   53.1    96    0.0     0     0.0   99999.0    0.00 
 210    6:20   0.02   52.9    96    0.0     0     0.0   99999.0    0.00 
 210    6:30   0.09   53.0    96    0.0   127     1.2   99999.0    0.00 
 210    6:40   0.10   54.0    97    0.6   134     1.8   99999.0    0.00 
 210    6:50   0.11   55.4    94    1.7   158     3.0   99999.0    0.00 
 210    7:00   0.11   56.5    88    1.6   148     3.6   99999.0    0.00 
 210    7:10   0.08   56.8    88    1.6   141     3.0   99999.0    0.00 
 210    7:20   0.07   56.5    90    2.0   141     4.8   99999.0    0.00 
 210    7:30   0.08   56.3    91    2.0   155     4.8   99999.0    0.00 
 210    7:40   0.04   56.3    92    1.5   149     5.1   99999.0    0.00 
 210    7:50   0.14   56.2    93    3.1   167     6.0   99999.0    0.00 
 210    8:00   0.12   56.4    92    2.9   160     4.8   99999.0    0.00 
 210    8:10   0.13   56.5    92    2.3   154     4.2   99999.0    0.00 
 210    8:20   0.07   56.6    92    1.9   155     3.6   99999.0    0.00 
 210    8:30   0.02   56.4    92    1.0   340     3.0   99999.0    0.00 
 210    8:40   0.02   56.0    94    0.8   208     2.4   99999.0    0.00 
 210    8:50   0.03   55.9    94    0.9    21     2.4   99999.0    0.00 
 210    9:00   0.09   56.1    94    1.2   154     2.4   99999.0    0.00 
 210    9:10   0.11   56.6    93    1.3   150     3.0   99999.0    0.00 
 210    9:20   0.10   57.1    92    1.4   152     4.8   99999.0    0.00 
 210    9:30   0.15   57.3    90    1.7   180     3.6   99999.0    0.00 
 210    9:40   0.12   57.7    89    0.9   184     2.4   99999.0    0.00 
 210    9:50   0.20   58.2    88    1.6   119     3.0   99999.0    0.00 
 210   10:00   0.26   58.9    87    2.7   143     6.6   99999.0    0.00 
 210   10:10   0.55   59.5    86    3.3   150     6.6   99999.0    0.00 
 210   10:20   0.76   61.2    80    4.3   158     8.4   99999.0    0.00 
 210   10:30   0.45   60.7    80    3.8   158     7.8   99999.0    0.00 
 210   10:40   1.04   62.6    77    3.3   152     7.8   99999.0    0.00 
 210   10:50   0.51   63.5    72    2.8   155     6.6   99999.0    0.00 
 210   11:00   0.58   63.3    73    1.9   199     5.7   99999.0    0.00 
 210   11:10   0.18   63.1    74    1.9   210     4.8   99999.0    0.00 
 210   11:20   0.94   63.5    74    3.0   124     7.2   99999.0    0.00 
 210   11:30   0.82   66.1    68    3.2   151     5.4   99999.0    0.00 
 210   11:40   0.30   65.7    68    2.9    75     7.2   99999.0    0.00 
 210   11:50   0.76   65.9    68    2.6   359     5.4   99999.0    0.00 
 210   12:00   0.29   65.3    70    3.0   166     9.6   99999.0    0.00 
 210   12:10   0.30   63.5    79    2.5    27     6.6   99999.0    0.00 
 210   12:20   0.29   62.3    80    2.0   352     3.6   99999.0    0.00 
 210   12:30   0.70   63.2    77    2.4   324     4.8   99999.0    0.00 
 210   12:40   0.63   65.0    68    1.9   232     4.5   99999.0    0.00 
 210   12:50   0.63   65.4    66    2.3   202     4.8   99999.0    0.00 
 210   13:00   0.74   66.5    62    3.6   208     7.8   99999.0    0.00 
 210   13:10   0.34   65.6    63    2.2   291     9.6   99999.0    0.00 
 210   13:20   0.08   64.7    66    1.7   351     3.6   99999.0    0.00 
 210   13:30   0.08   63.9    68    1.6    49     3.0   99999.0    0.00 
 210   13:40   0.06   62.7    75    1.0   171     3.0   99999.0    0.00 
 210   13:50   0.17   60.7    84    2.0   136     5.4   99999.0    0.01 
 210   14:00   0.34   60.6    89    2.5    17     3.6   99999.0    0.00 
 210   14:10   0.28   61.1    85    2.0   324     4.2   99999.0    0.00 
 210   14:20   0.19   61.2    84    2.7   355     4.8   99999.0    0.00 

Return to Conejos, Valles Caldera graphs page.


Western Regional Climate Center,wrcc@dri.edu